Time;durP1;ratioP1;P1;durP2;ratioP2;P2;SDS_P1;SDS_P2;PMS_P1;PMS_P2;Temp;Humidity;BMP_temperature;BMP_pressure;BME280_temperature;BME280_humidity;BME280_pressure;Samples;Min_cycle;Max_cycle;Signal;HPM_P1;HPM_P2
2022/07/02 00:01:17;;;;;;;17.62;15.05;;;;;;;22.64;87.15;100824.09;1670688;84;25820;-83
2022/07/02 00:03:55;;;;;;;18.55;16.07;;;;;;;22.63;86.49;100823.25;1668344;84;27510;-83
2022/07/02 00:06:25;;;;;;;19.02;17.12;;;;;;;22.67;86.66;100821.65;1669802;85;25838;-83
2022/07/02 00:08:52;;;;;;;;;;;;;;;22.66;86.80;100831.47;1661432;85;25719;-83
2022/07/02 00:11:20;;;;;;;18.55;16.70;;;;;;;22.65;87.20;100826.55;1654390;85;26673;-83
2022/07/02 00:13:49;;;;;;;18.92;16.23;;;;;;;22.67;87.06;100825.74;1653669;85;25531;-83
2022/07/02 00:16:15;;;;;;;18.25;16.45;;;;;;;22.74;87.03;100833.72;1664550;85;27529;-83
2022/07/02 00:18:44;;;;;;;18.37;16.45;;;;;;;22.79;86.91;100839.23;1651569;85;25799;-83
2022/07/02 00:21:10;;;;;;;17.85;15.85;;;;;;;22.83;87.04;100834.36;1650006;85;25712;-84
2022/07/02 00:23:37;;;;;;;18.05;16.20;;;;;;;22.84;86.97;100835.16;1673701;85;25792;-83
2022/07/02 00:26:11;;;;;;;17.52;15.20;;;;;;;22.85;87.28;100839.02;1681165;83;25895;-83
2022/07/02 00:28:41;;;;;;;17.48;15.58;;;;;;;22.79;87.62;100835.97;1706838;83;27540;-83
2022/07/02 00:31:08;;;;;;;;;;;;;;;22.78;87.90;100829.38;1694974;84;26477;-82
2022/07/02 00:33:38;;;;;;;20.72;14.98;;;;;;;22.78;88.20;100838.41;1667257;84;25695;-83
2022/07/02 00:36:04;;;;;;;16.87;14.75;;;;;;;22.71;88.27;100843.81;1663580;84;25735;-83
2022/07/02 00:38:31;;;;;;;17.25;15.53;;;;;;;22.66;88.15;100842.40;1655216;85;25540;-83
2022/07/02 00:41:00;;;;;;;20.80;16.55;;;;;;;22.66;88.69;100851.95;1637377;85;27478;-83
2022/07/02 00:43:27;;;;;;;18.05;16.10;;;;;;;22.60;88.14;100837.45;1642574;85;25951;-84
2022/07/02 00:45:56;;;;;;;16.32;14.73;;;;;;;22.57;88.12;100831.62;1651371;84;26013;-84
2022/07/02 00:48:23;;;;;;;17.65;15.28;;;;;;;22.52;88.38;100830.23;1651663;85;25897;-84
2022/07/02 00:50:49;;;;;;;23.00;14.28;;;;;;;22.43;88.48;100816.77;1663832;85;25912;-83
2022/07/02 00:53:15;;;;;;;17.73;15.10;;;;;;;22.36;88.59;100814.78;1646887;85;28355;-83
2022/07/02 00:55:42;;;;;;;15.95;13.95;;;;;;;22.33;89.10;100805.73;1655353;85;25844;-84
2022/07/02 00:58:08;;;;;;;16.73;14.85;;;;;;;22.24;89.40;100806.75;1647040;85;25318;-82
2022/07/02 01:00:34;;;;;;;15.23;13.62;;;;;;;22.19;88.94;100803.98;1646581;85;26415;-84
2022/07/02 01:03:02;;;;;;;15.72;13.93;;;;;;;22.16;89.61;100797.67;1663553;86;25931;-82
2022/07/02 01:05:29;;;;;;;15.98;13.08;;;;;;;22.14;90.19;100800.67;1656021;84;28451;-83
2022/07/02 01:10:48;;;;;;;15.95;12.75;;;;;;;22.00;89.37;100813.61;1646775;85;25820;-84
2022/07/02 01:13:15;;;;;;;16.30;13.20;;;;;;;21.99;89.50;100797.78;1646696;85;26478;-83
2022/07/02 01:15:41;;;;;;;15.23;13.50;;;;;;;21.95;89.49;100781.64;1646639;85;26580;-83
2022/07/02 01:18:08;;;;;;;16.50;12.40;;;;;;;21.92;89.25;100780.78;1663516;86;27517;-83
2022/07/02 01:20:34;;;;;;;15.18;13.65;;;;;;;21.92;89.25;100769.88;1663456;84;26551;-84
2022/07/02 01:23:00;;;;;;;15.93;13.72;;;;;;;21.95;89.43;100768.01;1660062;85;26080;-84
2022/07/02 01:25:27;;;;;;;14.90;13.40;;;;;;;21.98;89.11;100761.22;1651663;85;26302;-84
2022/07/02 01:27:53;;;;;;;15.08;13.45;;;;;;;21.98;89.03;100753.84;1661092;85;25826;-83
2022/07/02 01:30:20;;;;;;;15.23;13.55;;;;;;;22.00;88.96;100746.25;1662530;85;27522;-84
2022/07/02 01:32:46;;;;;;;16.97;13.68;;;;;;;22.03;89.01;100742.98;1657727;85;25825;-83
2022/07/02 01:35:12;;;;;;;16.07;13.40;;;;;;;22.08;88.83;100748.50;1659614;84;26761;-83
2022/07/02 01:37:40;;;;;;;14.75;13.15;;;;;;;22.10;88.61;100746.34;1657023;85;25616;-84
2022/07/02 01:40:09;;;;;;;17.25;13.10;;;;;;;22.11;88.50;100750.69;1663588;86;26418;-83
2022/07/02 01:42:36;;;;;;;14.35;12.40;;;;;;;22.10;88.47;100744.14;1662923;85;28260;-84
2022/07/02 01:45:04;;;;;;;14.98;12.63;;;;;;;22.08;88.28;100744.41;1660393;85;26589;-84
2022/07/02 01:47:31;;;;;;;16.75;13.43;;;;;;;22.09;88.25;100745.23;1653264;85;25833;-83
2022/07/02 01:49:57;;;;;;;14.10;12.63;;;;;;;22.11;88.10;100752.63;1661806;85;25459;-83
2022/07/02 01:52:26;;;;;;;17.35;12.93;;;;;;;22.12;87.90;100754.25;1646786;85;25326;-83
2022/07/02 01:54:51;;;;;;;17.73;13.43;;;;;;;22.14;87.89;100766.56;1646548;85;28435;-83
2022/07/02 01:57:18;;;;;;;16.77;12.37;;;;;;;22.11;87.80;100777.18;1669281;85;26361;-83
2022/07/02 01:59:44;;;;;;;19.92;13.00;;;;;;;22.00;87.71;100806.80;1668929;85;26049;-83
2022/07/02 02:02:11;;;;;;;14.80;13.08;;;;;;;21.90;88.24;100810.22;1676931;84;26277;-83
2022/07/02 02:04:37;;;;;;;13.43;11.88;;;;;;;21.85;88.75;100813.44;1669398;85;25346;-83
2022/07/02 02:07:04;;;;;;;15.98;12.73;;;;;;;21.83;88.89;100816.97;1668843;85;27472;-83
2022/07/02 02:09:30;;;;;;;15.90;12.23;;;;;;;21.84;89.24;100829.50;1666345;85;26463;-82
2022/07/02 02:11:57;;;;;;;16.00;11.70;;;;;;;21.84;89.59;100835.79;1653411;85;26567;-83
2022/07/02 02:14:23;;;;;;;12.73;11.35;;;;;;;21.82;89.57;100842.05;1658780;85;26417;-83
2022/07/02 02:16:49;;;;;;;14.70;11.65;;;;;;;21.78;89.56;100844.13;1669963;85;25776;-83
2022/07/02 02:19:16;;;;;;;14.87;11.48;;;;;;;21.78;89.83;100853.67;1667893;84;27600;-83
2022/07/02 02:21:42;;;;;;;15.43;11.35;;;;;;;21.80;89.96;100855.61;1658271;86;25850;-84
2022/07/02 02:24:09;;;;;;;16.20;11.93;;;;;;;21.84;90.11;100874.50;1668303;83;25960;-83
2022/07/02 02:26:35;;;;;;;12.25;10.68;;;;;;;21.86;90.18;100890.91;1657110;84;25874;-83
2022/07/02 02:29:01;;;;;;;12.10;10.25;;;;;;;21.85;90.00;100900.18;1665650;86;25806;-83
2022/07/02 02:31:28;;;;;;;12.20;9.53;;;;;;;21.83;90.02;100907.80;1656585;85;28856;-83
2022/07/02 02:33:54;;;;;;;13.62;9.60;;;;;;;21.80;90.38;100906.89;1665420;84;25840;-84
2022/07/02 02:36:21;;;;;;;12.98;10.95;;;;;;;21.74;90.07;100902.98;1703136;83;26031;-83
2022/07/02 02:38:47;;;;;;;14.20;10.45;;;;;;;21.72;90.42;100900.52;1710834;83;26270;-84
2022/07/02 02:41:15;;;;;;;13.08;10.10;;;;;;;21.70;90.89;100893.13;1709938;83;26510;-83
2022/07/02 02:43:42;;;;;;;11.75;9.15;;;;;;;21.69;90.67;100892.83;1708200;83;27512;-84
2022/07/02 02:46:09;;;;;;;13.68;9.60;;;;;;;21.70;90.68;100884.13;1679116;83;25820;-83
2022/07/02 02:48:37;;;;;;;10.63;9.18;;;;;;;21.68;90.80;100877.56;1644339;86;25911;-83
2022/07/02 02:51:05;;;;;;;10.95;9.80;;;;;;;21.66;91.23;100870.71;1668839;85;25957;-84
2022/07/02 02:53:32;;;;;;;14.38;10.30;;;;;;;21.62;90.69;100876.39;1645132;85;25909;-84
2022/07/02 02:55:59;;;;;;;12.40;10.28;;;;;;;21.56;90.67;100880.92;1656425;84;28297;-82
2022/07/02 02:58:27;;;;;;;12.45;10.63;;;;;;;21.51;91.09;100874.86;1650765;85;26040;-83
2022/07/02 03:00:54;;;;;;;10.65;8.63;;;;;;;21.45;91.43;100870.42;1649713;85;26600;-83
2022/07/02 03:03:20;;;;;;;11.65;8.03;;;;;;;21.40;91.90;100881.80;1656313;85;26326;-83
2022/07/02 03:05:46;;;;;;;8.38;6.35;;;;;;;21.33;91.47;100876.53;1657906;84;25824;-82
2022/07/02 03:08:12;;;;;;;9.93;7.67;;;;;;;21.26;91.25;100883.21;1668375;85;27445;-82
2022/07/02 03:10:40;;;;;;;7.92;6.70;;;;;;;21.24;91.38;100894.90;1653674;85;25891;-83
2022/07/02 03:13:06;;;;;;;7.78;6.80;;;;;;;21.16;91.03;100895.33;1662567;85;25905;-82
2022/07/02 03:15:32;;;;;;;11.57;6.67;;;;;;;21.08;91.14;100897.11;1654073;85;26081;-83
2022/07/02 03:17:59;;;;;;;8.70;6.50;;;;;;;21.00;91.02;100899.66;1652985;86;26636;-83
2022/07/02 03:20:25;;;;;;;12.68;6.85;;;;;;;20.98;91.28;100892.84;1686314;84;27476;-83
2022/07/02 03:22:51;;;;;;;10.65;6.53;;;;;;;20.97;91.30;100888.45;1680263;83;25868;-83
2022/07/02 03:25:18;;;;;;;8.13;5.87;;;;;;;20.89;91.35;100877.98;1672891;84;26647;-83
2022/07/02 03:27:44;;;;;;;6.20;5.60;;;;;;;20.83;91.29;100884.42;1671130;84;26460;-83
2022/07/02 03:30:12;;;;;;;8.68;5.53;;;;;;;20.85;91.67;100891.80;1677054;84;25773;-83
2022/07/02 03:32:38;;;;;;;6.33;5.08;;;;;;;20.82;91.58;100894.48;1679686;83;28346;-83
2022/07/02 03:35:05;;;;;;;9.15;5.00;;;;;;;20.81;91.51;100886.56;1671043;83;25969;-83
2022/07/02 03:37:31;;;;;;;6.87;4.90;;;;;;;20.76;91.63;100879.13;1679829;84;25841;-83
2022/07/02 03:39:58;;;;;;;9.23;5.17;;;;;;;20.72;91.73;100892.39;1681804;84;26447;-83
2022/07/02 03:42:24;;;;;;;6.87;4.45;;;;;;;20.61;92.42;100887.03;1674186;84;25923;-84
2022/07/02 03:44:51;;;;;;;7.90;5.58;;;;;;;20.54;92.36;100888.55;1678862;83;27633;-83
2022/07/02 03:47:17;;;;;;;7.72;4.83;;;;;;;20.52;93.11;100886.61;1681615;84;25757;-83
2022/07/02 03:49:44;;;;;;;5.80;4.50;;;;;;;20.47;92.69;100885.14;1672253;84;26981;-83
2022/07/02 03:52:10;;;;;;;6.67;5.20;;;;;;;20.49;92.89;100893.05;1671661;84;25905;-83
2022/07/02 03:54:36;;;;;;;8.15;5.53;;;;;;;20.48;92.96;100898.22;1677890;84;25333;-83
2022/07/02 03:57:04;;;;;;;8.38;5.22;;;;;;;20.48;92.86;100904.50;1673712;84;28329;-83
2022/07/02 03:59:30;;;;;;;6.97;4.33;;;;;;;20.45;92.77;100914.50;1672623;84;25806;-83
2022/07/02 04:01:56;;;;;;;8.03;5.50;;;;;;;20.45;92.90;100923.19;1676917;83;25926;-85
2022/07/02 04:04:23;;;;;;;6.90;5.47;;;;;;;20.47;93.14;100930.05;1670445;84;25989;-84
2022/07/02 04:06:49;;;;;;;7.80;5.03;;;;;;;20.51;93.10;100937.17;1678882;84;25789;-83
2022/07/02 04:09:15;;;;;;;6.28;4.85;;;;;;;20.54;93.00;100935.34;1680657;85;27601;-81
2022/07/02 04:11:41;;;;;;;10.08;6.05;;;;;;;20.59;92.93;100932.73;1662466;85;25798;-83
2022/07/02 04:14:08;;;;;;;7.60;5.60;;;;;;;20.57;92.52;100937.03;1673712;83;25766;-82
2022/07/02 04:16:34;;;;;;;6.47;5.53;;;;;;;20.55;92.37;100941.89;1663883;83;26244;-82
2022/07/02 04:19:00;;;;;;;6.00;5.20;;;;;;;20.55;92.52;100945.98;1678611;83;26020;-83
2022/07/02 04:21:27;;;;;;;9.73;5.83;;;;;;;20.55;92.41;100953.34;1679492;83;27457;-82
2022/07/02 04:23:53;;;;;;;7.90;5.97;;;;;;;20.52;92.60;100965.53;1690884;84;25956;-83
2022/07/02 04:26:19;;;;;;;7.33;5.60;;;;;;;20.48;92.73;100958.09;1688847;83;25403;-83
2022/07/02 04:28:46;;;;;;;8.98;6.50;;;;;;;20.42;93.12;100957.15;1673384;84;25763;-83
2022/07/02 04:31:12;;;;;;;6.87;5.87;;;;;;;20.39;92.88;100968.53;1671187;84;25865;-82
2022/07/02 04:33:38;;;;;;;7.00;6.22;;;;;;;20.38;92.89;100962.78;1680959;84;28354;-82
2022/07/02 04:36:05;;;;;;;11.60;6.70;;;;;;;20.38;93.05;100968.23;1680901;83;25794;-82
2022/07/02 04:38:31;;;;;;;8.88;6.65;;;;;;;20.41;93.13;100973.73;1676261;84;25770;-84
2022/07/02 04:40:58;;;;;;;11.30;6.45;;;;;;;20.41;93.26;100964.20;1685271;83;26222;-82
2022/07/02 04:43:24;;;;;;;8.98;7.33;;;;;;;20.41;92.99;100966.92;1691110;83;25836;-82
2022/07/02 04:45:50;;;;;;;10.40;8.13;;;;;;;20.38;93.28;100965.51;1669923;84;27436;-83
2022/07/02 04:48:16;;;;;;;10.32;7.28;;;;;;;20.36;93.09;100977.73;1679634;84;26160;-83
2022/07/02 04:50:43;;;;;;;11.33;7.30;;;;;;;20.35;93.37;100980.14;1685246;84;25785;-83
2022/07/02 04:53:09;;;;;;;9.28;6.83;;;;;;;20.35;93.43;100978.25;1687516;83;25794;-82
2022/07/02 04:55:35;;;;;;;9.43;7.42;;;;;;;20.36;93.73;100980.45;1687423;83;25729;-84
2022/07/02 04:58:01;;;;;;;13.00;7.17;;;;;;;20.32;93.39;100988.77;1679384;84;28283;-84
2022/07/02 05:00:28;;;;;;;12.13;8.15;;;;;;;20.34;93.82;100991.55;1687389;84;25774;-84
2022/07/02 05:02:55;;;;;;;9.23;7.80;;;;;;;20.34;93.66;100996.99;1673258;84;25857;-84
2022/07/02 05:05:21;;;;;;;12.43;8.95;;;;;;;20.39;93.78;101006.63;1688406;83;25951;-84
2022/07/02 05:07:47;;;;;;;10.90;7.87;;;;;;;20.41;93.58;101014.02;1673577;83;25794;-84
2022/07/02 05:10:14;;;;;;;9.63;7.92;;;;;;;20.39;93.83;101011.23;1657035;85;27903;-84
2022/07/02 05:12:40;;;;;;;8.80;7.90;;;;;;;20.37;94.13;101016.93;1672196;85;25797;-85
2022/07/02 05:15:08;;;;;;;8.83;7.87;;;;;;;20.35;94.29;101021.79;1677838;83;25858;-84
2022/07/02 05:17:34;;;;;;;9.05;8.15;;;;;;;20.30;94.33;101027.64;1676342;85;25951;-84
2022/07/02 05:20:00;;;;;;;9.95;7.30;;;;;;;20.30;94.50;101024.39;1674498;85;25776;-85
2022/07/02 05:22:27;;;;;;;11.33;7.12;;;;;;;20.33;94.53;101025.81;1676093;85;27450;-84
2022/07/02 05:24:53;;;;;;;8.23;7.40;;;;;;;20.34;94.53;101032.36;1676642;83;25886;-84
2022/07/02 05:27:19;;;;;;;8.90;6.25;;;;;;;20.35;94.64;101036.75;1669914;85;26495;-83
2022/07/02 05:29:45;;;;;;;6.65;5.60;;;;;;;20.34;94.50;101034.25;1650325;86;26164;-85
2022/07/02 05:32:12;;;;;;;5.33;4.87;;;;;;;20.29;94.38;101047.23;1672773;84;25775;-84
2022/07/02 05:34:38;;;;;;;5.70;4.92;;;;;;;20.26;94.52;101038.19;1688009;84;27449;-83
2022/07/02 05:37:04;;;;;;;8.53;5.05;;;;;;;20.24;94.45;101049.84;1687210;84;25895;-84
2022/07/02 05:39:31;;;;;;;6.12;5.53;;;;;;;20.20;94.74;101058.19;1655312;85;26631;-85
2022/07/02 05:41:57;;;;;;;8.85;5.22;;;;;;;20.19;94.87;101054.33;1652596;85;26002;-84
2022/07/02 05:44:23;;;;;;;8.75;4.90;;;;;;;20.21;94.82;101069.34;1661453;84;26123;-84
2022/07/02 05:46:50;;;;;;;4.80;3.85;;;;;;;20.20;94.79;101064.13;1660482;85;27461;-84
2022/07/02 05:49:16;;;;;;;5.87;3.47;;;;;;;20.18;94.87;101063.53;1673605;84;25928;-84
2022/07/02 05:51:42;;;;;;;5.47;4.22;;;;;;;20.15;95.06;101057.20;1684457;84;25830;-85
2022/07/02 05:54:08;;;;;;;5.97;5.37;;;;;;;20.13;95.55;101062.89;1690446;83;26443;-84
2022/07/02 05:56:35;;;;;;;6.85;5.90;;;;;;;20.08;95.37;101067.40;1689344;83;26356;-84
2022/07/02 05:59:01;;;;;;;5.47;4.50;;;;;;;20.09;95.52;101063.59;1688901;84;27462;-85
2022/07/02 06:01:27;;;;;;;6.90;4.10;;;;;;;20.12;95.73;101063.13;1702191;83;25292;-84
2022/07/02 06:03:54;;;;;;;8.55;4.00;;;;;;;20.13;95.51;101060.16;1682203;83;25717;-85
2022/07/02 06:09:04;;;;;;;5.70;4.45;;;;;;;20.22;95.69;101063.38;1687013;84;25947;-85
2022/07/02 06:11:31;;;;;;;6.42;4.55;;;;;;;20.22;95.95;101063.38;1696595;84;27557;-85
2022/07/02 06:13:57;;;;;;;4.85;4.37;;;;;;;20.21;95.86;101054.94;1692056;84;25841;-85
2022/07/02 06:16:24;;;;;;;5.08;4.58;;;;;;;20.18;95.61;101058.09;1690798;84;25828;-84
2022/07/02 06:18:50;;;;;;;5.47;3.67;;;;;;;20.14;95.98;101066.44;1697817;84;25832;-86
2022/07/02 06:21:16;;;;;;;5.50;3.58;;;;;;;20.11;95.90;101067.73;1689513;83;25946;-85
2022/07/02 06:23:42;;;;;;;6.15;4.15;;;;;;;20.07;95.65;101068.45;1694152;84;28359;-84
2022/07/02 06:26:09;;;;;;;5.35;3.10;;;;;;;20.03;96.20;101068.63;1683147;84;25363;-86
2022/07/02 06:28:35;;;;;;;8.20;4.53;;;;;;;20.00;95.75;101078.92;1695373;84;25885;-84
2022/07/02 06:31:01;;;;;;;9.83;5.80;;;;;;;20.03;96.19;101084.95;1691368;84;25881;-87
2022/07/02 06:33:28;;;;;;;7.28;3.92;;;;;;;20.07;96.23;101091.56;1681660;84;26477;-86
2022/07/02 06:35:54;;;;;;;6.42;3.52;;;;;;;20.08;95.89;101095.39;1680845;84;27453;-85
2022/07/02 06:38:20;;;;;;;5.00;3.05;;;;;;;20.09;95.82;101103.87;1677897;84;26007;-85
2022/07/02 06:40:47;;;;;;;3.47;2.58;;;;;;;20.08;95.80;101110.36;1678620;83;25869;-84
2022/07/02 06:43:13;;;;;;;3.22;2.45;;;;;;;20.12;96.11;101108.02;1675550;84;25797;-85
2022/07/02 06:45:40;;;;;;;3.90;2.50;;;;;;;20.09;95.43;101115.27;1684593;83;25929;-85
2022/07/02 06:48:06;;;;;;;5.30;2.80;;;;;;;20.05;95.35;101120.37;1679339;84;27462;-85
2022/07/02 06:50:32;;;;;;;3.47;2.60;;;;;;;19.98;95.44;101118.28;1671332;84;25915;-85
2022/07/02 06:52:58;;;;;;;4.25;2.15;;;;;;;19.99;95.78;101122.67;1686759;84;25909;-84
2022/07/02 06:55:25;;;;;;;6.78;2.33;;;;;;;19.93;95.42;101114.91;1681812;83;25770;-85
2022/07/02 06:57:51;;;;;;;2.72;2.02;;;;;;;19.90;95.74;101119.48;1696968;83;26890;-85
2022/07/02 07:00:21;;;;;;;5.17;2.60;;;;;;;19.90;95.65;101134.95;1685500;84;27433;-85
2022/07/02 07:02:46;;;;;;;3.02;2.10;;;;;;;19.87;95.42;101142.20;1685471;84;25845;-84
2022/07/02 07:05:12;;;;;;;2.60;2.30;;;;;;;19.83;95.67;101143.22;1690305;82;25769;-85
2022/07/02 07:07:38;;;;;;;4.22;2.58;;;;;;;19.82;95.79;101152.42;1684768;83;26290;-84
2022/07/02 07:10:05;;;;;;;3.40;2.77;;;;;;;19.84;95.52;101153.57;1693089;83;25775;-86
2022/07/02 07:12:32;;;;;;;3.35;3.00;;;;;;;19.87;95.78;101153.08;1665639;84;28143;-83
2022/07/02 07:15:00;;;;;;;6.10;4.50;;;;;;;19.90;95.84;101150.75;1686489;82;26003;-84
2022/07/02 07:17:26;;;;;;;4.08;3.58;;;;;;;19.93;95.91;101155.70;1682131;84;25825;-84
2022/07/02 07:19:53;;;;;;;5.40;2.77;;;;;;;19.97;95.81;101156.88;1687137;84;26234;-85
2022/07/02 07:22:19;;;;;;;4.85;4.20;;;;;;;19.96;95.61;101165.28;1687967;83;26024;-85
2022/07/02 07:24:45;;;;;;;4.10;3.58;;;;;;;19.94;95.31;101164.16;1684401;84;27454;-84
2022/07/02 07:27:12;;;;;;;2.50;2.30;;;;;;;19.93;94.99;101172.02;1694518;84;25772;-83
2022/07/02 07:29:38;;;;;;;2.98;2.40;;;;;;;19.91;94.91;101170.06;1678682;84;25846;-84
2022/07/02 07:32:05;;;;;;;2.92;2.02;;;;;;;19.94;94.96;101181.00;1653802;84;26270;-85
2022/07/02 07:34:31;;;;;;;4.03;2.42;;;;;;;19.98;95.35;101184.38;1664048;84;25838;-85
2022/07/02 07:36:58;;;;;;;3.22;2.70;;;;;;;19.98;94.91;101178.95;1672711;85;27526;-84
2022/07/02 07:39:24;;;;;;;2.90;2.60;;;;;;;20.00;94.63;101180.89;1672808;85;25781;-85
2022/07/02 07:41:51;;;;;;;3.83;2.58;;;;;;;19.98;94.62;101185.74;1661461;84;26489;-84
2022/07/02 07:44:17;;;;;;;4.45;2.92;;;;;;;19.99;94.95;101187.94;1670821;84;25861;-84
2022/07/02 07:46:43;;;;;;;3.20;2.60;;;;;;;19.96;94.94;101187.88;1669760;83;26698;-82
2022/07/02 07:49:11;;;;;;;3.37;2.02;;;;;;;19.98;94.72;101188.98;1671115;84;27452;-84
2022/07/02 07:51:37;;;;;;;4.22;2.85;;;;;;;20.00;94.84;101195.02;1671308;85;25887;-85
2022/07/02 07:54:04;;;;;;;3.60;2.52;;;;;;;20.07;95.10;101197.62;1669566;84;26185;-85
2022/07/02 07:56:30;;;;;;;5.20;2.65;;;;;;;20.11;95.30;101188.77;1674452;85;26290;-84
2022/07/02 07:58:56;;;;;;;2.90;2.50;;;;;;;20.11;94.49;101195.58;1674085;85;25533;-84
2022/07/02 08:01:22;;;;;;;4.67;2.58;;;;;;;20.07;94.21;101198.99;1669916;85;27630;-83
2022/07/02 08:03:49;;;;;;;5.35;3.08;;;;;;;20.05;94.56;101202.48;1677998;85;25966;-85
2022/07/02 08:06:15;;;;;;;4.40;2.60;;;;;;;20.07;94.59;101207.98;1680662;83;25817;-83
2022/07/02 08:08:41;;;;;;;4.85;3.05;;;;;;;20.09;94.83;101203.14;1681300;85;26052;-84
2022/07/02 08:11:08;;;;;;;4.15;2.80;;;;;;;20.11;94.29;101206.98;1680518;84;25951;-84
2022/07/02 08:13:35;;;;;;;4.92;3.55;;;;;;;20.12;94.34;101216.28;1676034;85;28407;-84
2022/07/02 08:16:01;;;;;;;5.20;3.08;;;;;;;20.11;94.17;101216.50;1666924;84;25817;-84
2022/07/02 08:18:28;;;;;;;8.53;3.45;;;;;;;20.14;94.46;101226.92;1658669;85;25822;-83
2022/07/02 08:20:54;;;;;;;7.83;3.95;;;;;;;20.09;94.26;101228.98;1672426;84;25803;-83
2022/07/02 08:23:21;;;;;;;3.08;2.83;;;;;;;20.04;94.30;101228.84;1651473;86;26046;-84
2022/07/02 08:25:48;;;;;;;3.77;3.30;;;;;;;20.07;94.77;101222.95;1666585;85;27565;-83
2022/07/02 08:28:14;;;;;;;3.67;2.90;;;;;;;20.09;95.38;101220.82;1673694;84;25870;-83
2022/07/02 08:30:40;;;;;;;11.70;5.20;;;;;;;20.11;94.92;101227.38;1673751;84;25937;-84
2022/07/02 08:33:07;;;;;;;4.92;3.67;;;;;;;20.19;95.19;101236.02;1663931;85;26295;-84
2022/07/02 08:35:33;;;;;;;3.27;2.98;;;;;;;20.26;94.57;101239.51;1673363;85;25872;-84
2022/07/02 08:37:59;;;;;;;3.98;3.17;;;;;;;20.23;94.65;101236.44;1672549;84;27950;-83
2022/07/02 08:40:29;;;;;;;5.42;3.72;;;;;;;20.23;94.71;101241.88;1670690;85;25913;-85
2022/07/02 08:42:59;;;;;;;3.83;3.50;;;;;;;20.29;94.50;101241.77;1673535;85;26460;-84
2022/07/02 08:45:32;;;;;;;4.87;4.40;;;;;;;20.32;94.44;101248.09;1663447;85;25661;-84
2022/07/02 08:47:59;;;;;;;3.87;3.47;;;;;;;20.37;94.32;101251.47;1694771;83;25726;-84
2022/07/02 08:50:26;;;;;;;6.92;4.35;;;;;;;20.37;93.62;101256.38;1695489;83;27444;-84
2022/07/02 08:52:53;;;;;;;7.55;5.72;;;;;;;20.31;94.24;101263.30;1690716;83;25780;-85
2022/07/02 08:55:21;;;;;;;4.40;4.00;;;;;;;20.31;94.08;101265.49;1691836;84;25893;-84
2022/07/02 08:57:49;;;;;;;5.00;3.60;;;;;;;20.33;93.92;101270.16;1691565;84;25955;-84
2022/07/02 09:00:19;;;;;;;4.12;3.50;;;;;;;20.37;94.07;101268.63;1691805;84;26631;-84
2022/07/02 09:02:53;;;;;;;3.33;3.12;;;;;;;20.38;93.80;101270.83;1691383;84;27063;-83
2022/07/02 09:05:26;;;;;;;3.58;3.27;;;;;;;20.34;93.68;101275.89;1691259;84;25816;-84
2022/07/02 09:07:55;;;;;;;3.85;3.55;;;;;;;20.32;94.11;101279.38;1691470;84;25916;-84
2022/07/02 09:10:26;;;;;;;3.40;3.10;;;;;;;20.37;94.15;101278.67;1668133;84;25814;-84
2022/07/02 09:12:55;;;;;;;3.22;3.02;;;;;;;20.44;93.82;101279.41;1668799;85;25821;-83
2022/07/02 09:15:22;;;;;;;2.60;2.40;;;;;;;20.48;93.79;101278.70;1666826;84;27426;-83
2022/07/02 09:17:49;;;;;;;1.80;1.70;;;;;;;20.41;92.80;101287.50;1687238;84;26431;-84
2022/07/02 09:20:16;;;;;;;1.67;1.22;;;;;;;20.28;91.98;101292.31;1690089;84;26008;-83
2022/07/02 09:22:49;;;;;;;2.65;1.60;;;;;;;20.19;92.24;101295.88;1686099;84;26297;-84
2022/07/02 09:25:22;;;;;;;1.47;1.37;;;;;;;20.18;92.77;101305.11;1687506;83;25937;-84
2022/07/02 09:28:03;;;;;;;1.60;1.50;;;;;;;20.18;92.37;101301.03;1650924;85;28307;-84
2022/07/02 09:30:33;;;;;;;1.87;1.47;;;;;;;20.14;92.18;101302.56;1666772;85;25710;-84
2022/07/02 09:35:45;;;;;;;1.40;1.30;;;;;;;19.98;92.33;101313.56;1675391;84;25714;-84
2022/07/02 09:38:12;;;;;;;1.77;1.30;;;;;;;19.90;91.82;101316.61;1676006;85;25788;-84
2022/07/02 09:40:54;;;;;;;3.10;1.55;;;;;;;19.81;91.62;101315.27;1675626;83;27476;-85
2022/07/02 09:43:32;;;;;;;2.60;1.10;;;;;;;19.76;91.92;101317.83;1675751;85;25818;-84
2022/07/02 09:46:01;;;;;;;2.22;1.05;;;;;;;19.74;92.02;101319.95;1675651;85;26251;-85
2022/07/02 09:48:28;;;;;;;2.08;0.60;;;;;;;19.70;91.44;101325.55;1675518;85;25827;-84
2022/07/02 09:50:55;;;;;;;3.22;0.60;;;;;;;19.64;90.25;101316.95;1668782;85;26400;-84
2022/07/02 09:53:21;;;;;;;1.77;0.70;;;;;;;19.68;91.48;101322.75;1675703;84;27532;-84
2022/07/02 09:55:51;;;;;;;0.85;0.82;;;;;;;19.73;91.25;101318.30;1675764;84;25846;-84
2022/07/02 09:58:25;;;;;;;5.03;0.80;;;;;;;19.80;91.12;101316.30;1675362;85;25861;-83
2022/07/02 10:00:53;;;;;;;2.25;0.55;;;;;;;19.88;90.51;101321.97;1675977;85;25842;-84
2022/07/02 10:03:20;;;;;;;1.42;0.90;;;;;;;19.96;91.00;101324.36;1675821;84;26227;-83
2022/07/02 10:05:54;;;;;;;3.37;0.85;;;;;;;19.99;90.18;101326.63;1672045;84;28284;-83
2022/07/02 10:08:21;;;;;;;1.20;0.70;;;;;;;19.96;89.18;101324.36;1675924;84;26511;-84
2022/07/02 10:10:49;;;;;;;2.87;0.57;;;;;;;19.99;89.81;101322.55;1664079;85;25364;-83
2022/07/02 10:13:17;;;;;;;2.30;0.80;;;;;;;20.04;89.06;101323.22;1675955;85;26304;-84
2022/07/02 10:15:58;;;;;;;3.12;1.10;;;;;;;20.12;89.50;101329.69;1675663;84;26417;-83
2022/07/02 10:18:24;;;;;;;3.25;1.10;;;;;;;20.24;88.96;101338.73;1667738;85;30217;-84
2022/07/02 10:20:56;;;;;;;4.42;1.10;;;;;;;20.27;87.52;101344.56;1675789;85;25314;-83
2022/07/02 10:23:22;;;;;;;1.12;1.02;;;;;;;20.25;87.37;101335.78;1677631;84;25833;-83
2022/07/02 10:25:50;;;;;;;4.70;1.10;;;;;;;20.28;88.02;101334.48;1669090;85;25826;-84
2022/07/02 10:28:17;;;;;;;3.05;1.20;;;;;;;20.30;87.17;101341.89;1681215;85;25893;-83
2022/07/02 10:30:43;;;;;;;3.50;0.98;;;;;;;20.23;86.76;101339.81;1680774;83;27489;-83
2022/07/02 10:33:54;;;;;;;2.25;1.05;;;;;;;20.20;86.76;101347.04;1675763;85;25957;-83
2022/07/02 10:36:21;;;;;;;4.30;1.15;;;;;;;20.12;86.93;101349.57;1699192;82;26229;-83
2022/07/02 10:38:57;;;;;;;2.87;1.10;;;;;;;20.02;87.11;101351.19;1699577;83;25504;-83
2022/07/02 10:41:30;;;;;;;5.33;0.88;;;;;;;19.99;87.52;101346.47;1698450;84;25548;-82
2022/07/02 10:43:59;;;;;;;1.50;0.90;;;;;;;20.02;87.70;101355.27;1698776;83;27539;-83
2022/07/02 10:46:28;;;;;;;3.00;1.00;;;;;;;19.95;87.08;101351.27;1698643;84;25891;-82
2022/07/02 10:48:57;;;;;;;1.15;0.85;;;;;;;19.84;87.05;101352.05;1675066;84;25810;-84
2022/07/02 10:51:27;;;;;;;2.80;1.40;;;;;;;19.83;87.55;101349.84;1698869;84;25469;-83
2022/07/02 10:54:01;;;;;;;2.47;1.05;;;;;;;19.85;87.12;101355.05;1699238;84;25776;-83
2022/07/02 10:56:30;;;;;;;2.65;1.17;;;;;;;19.85;86.99;101353.69;1688206;83;27507;-83
2022/07/02 10:58:57;;;;;;;2.62;1.15;;;;;;;19.82;86.22;101358.24;1674785;85;25347;-83
2022/07/02 11:01:24;;;;;;;3.35;1.00;;;;;;;19.77;86.75;101354.84;1698072;84;25721;-82
2022/07/02 11:04:00;;;;;;;1.35;0.95;;;;;;;19.77;87.08;101357.56;1702103;83;25840;-83
2022/07/02 11:06:32;;;;;;;6.00;1.20;;;;;;;19.75;87.38;101357.48;1689741;82;25922;-83
2022/07/02 11:09:02;;;;;;;2.15;1.00;;;;;;;19.75;87.35;101361.04;1676000;84;27453;-83
2022/07/02 11:11:40;;;;;;;3.90;1.07;;;;;;;19.70;87.04;101357.33;1697140;83;25776;-83
2022/07/02 11:14:18;;;;;;;3.67;1.35;;;;;;;19.69;87.38;101357.05;1668681;84;25780;-84
2022/07/02 11:16:52;;;;;;;1.57;0.98;;;;;;;19.68;86.78;101352.13;1699907;83;26245;-83
2022/07/02 11:19:27;;;;;;;1.20;0.98;;;;;;;19.65;87.52;101355.84;1667424;85;25964;-83
2022/07/02 11:22:01;;;;;;;4.87;1.57;;;;;;;19.63;87.60;101351.97;1688097;82;27413;-84
2022/07/02 11:24:30;;;;;;;4.12;1.10;;;;;;;19.68;87.76;101345.86;1653241;84;25834;-82
2022/07/02 11:26:59;;;;;;;2.05;0.93;;;;;;;19.70;87.74;101344.58;1669479;84;25911;-83
2022/07/02 11:29:25;;;;;;;1.85;1.10;;;;;;;19.73;87.58;101346.84;1681424;84;26654;-83
2022/07/02 11:31:58;;;;;;;2.12;1.10;;;;;;;19.72;87.69;101344.34;1687896;84;25959;-83